Flight Track Log - Related Links

Times and Time Zones

All times are in EDT time to prevent confusion due to time zone crossing. See the CDG4880 flight status page for this flight to view local times or setup timezone preferences in your user account.

Time Position Orientation Groundspeed Altitude Reporting Facility
EDT Latitude Longitude Course Direction KTS MPH feet Rate Location/Type
Sat 04:31:00 AM 26.9486 118.0322 178° South  Level Estimated
Sat 04:32:00 AM 26.8732 118.0352 178° South  Level Estimated
Sat 04:33:00 AM 26.7979 118.0383 178° South  Level Estimated
Sat 04:34:00 AM 26.7226 118.0413 178° South  Level Estimated
Sat 04:35:00 AM 26.6472 118.0443 178° South  Level Estimated
Sat 04:36:00 AM 26.5719 118.0474 178° South  Level Estimated
Sat 04:37:00 AM 26.4965 118.0504 178° South  Level Estimated
Sat 04:38:00 AM 26.4212 118.0535 178° South  Level Estimated
Sat 04:39:00 AM 26.3459 118.0565 178° South  Level Estimated
Sat 04:40:00 AM 26.2705 118.0595 178° South  Level Estimated
Sat 04:41:00 AM 26.1952 118.0625 178° South  Level Estimated
Sat 04:41:07 AM 25.9970 117.9940 178° South 361 415 19,000  Level FlightAware ADS-B
Sat 04:41:49 AM 25.9350 117.9950 179° South 358 412 18,800 -152 Descending FlightAware ADS-B
Sat 04:42:26 AM 25.8830 117.9960 179° South 358 412 18,800  Level FlightAware ADS-B
Sat 04:43:02 AM 25.8320 117.9970 179° South 358 412 18,800  Level FlightAware ADS-B
Sat 04:43:38 AM 25.7820 117.9980 179° South 358 412 18,800  Level FlightAware ADS-B
Sat 04:44:14 AM 25.7310 117.9990 179° South 358 412 18,800  Level FlightAware ADS-B
Sat 04:44:50 AM 25.6800 118.0000 179° South 358 412 18,800 -3,692 Level FlightAware ADS-B
Sat 04:45:19 AM 25.5910 118.0060 177° South 338 389 14,800 -4,500 Descending FlightAware ADS-B
Sat 04:45:50 AM 25.5450 118.0160 169° South 338 389 14,300 -690 Descending FlightAware ADS-B
Sat 04:46:46 AM 25.4680 118.0370 166° South 322 371 13,800 -323 Descending FlightAware ADS-B
Sat 04:47:23 AM 25.4230 118.0490 166° South 322 371 13,800  Level FlightAware ADS-B
Sat 04:47:59 AM 25.3790 118.0620 165° South 322 371 13,800  Level FlightAware ADS-B
Sat 04:50:00 AM 25.2274 118.0740 176° South  Level Estimated
Sat 04:51:00 AM 25.1522 118.0799 176° South  Level Estimated
Sat 04:52:00 AM 25.0770 118.0859 176° South  Level Estimated
Sat 04:53:00 AM 25.0018 118.0918 176° South  Level Estimated
Sat 04:54:00 AM 24.9266 118.0977 176° South  Level Estimated
Sat 04:55:00 AM 24.8514 118.1036 176° South  Level Estimated
Sat 04:56:00 AM 24.7762 118.1096 176° South  Level Estimated
Sat 04:57:00 AM 24.7010 118.1154 176° South  Level Estimated
Sat 04:58:00 AM 24.6258 118.1213 176° South  Level Estimated
Sat 04:59:00 AM 24.5506 118.1272 176° South  Level Estimated
Sat 05:00:00 AM 24.5440 118.1277 176° South  Level Estimated
Sat 05:01:00 AM 24.5440 118.1277 193° South  Level Estimated
Sat 05:02:00 AM 24.5440 118.1277 193° South  Level Estimated
Sat 05:03:00 AM 24.5440 118.1277 193° South  Level Estimated
Sat 05:04:00 AM 24.5440 118.1277 193° South  Level Estimated
Sat 05:05:00 AM 24.5440 118.1277 193° South  Level Estimated
Sat 05:06:00 AM 24.5440 118.1277 193° South  Level Estimated
Sat 05:07:00 AM 24.5440 118.1277 193° South  Level Estimated
Sat 05:08:00 AM 24.5440 118.1277 193° South  Level Estimated
Sat 05:09:00 AM 24.5440 118.1277 193° South  Level Estimated

Login

Don't have an account? Register now (free) for customized features, flight alerts, and more!